Time;durP1;ratioP1;P1;durP2;ratioP2;P2;SDS_P1;SDS_P2;PMS_P1;PMS_P2;Temp;Humidity;BMP_temperature;BMP_pressure;BME280_temperature;BME280_humidity;BME280_pressure;Samples;Min_cycle;Max_cycle;Signal;HPM_P1;HPM_P2
2022/10/17 00:00:54;;;;;;;10.47;9.47;;;14.10;99.90;;;;;;5088817;28;20335;-47
2022/10/17 00:03:20;;;;;;;9.83;8.90;;;14.10;99.90;;;;;;5088342;28;20439;-50
2022/10/17 00:05:47;;;;;;;10.60;9.07;;;14.10;99.90;;;;;;5089160;28;20547;-50
2022/10/17 00:08:15;;;;;;;10.53;9.10;;;14.10;99.90;;;;;;5087198;28;20188;-46
2022/10/17 00:10:41;;;;;;;12.43;9.50;;;14.10;99.90;;;;;;5084470;28;20480;-49
2022/10/17 00:13:08;;;;;;;11.43;10.30;;;14.20;99.90;;;;;;5087570;28;20571;-50
2022/10/17 00:15:33;;;;;;;11.77;10.70;;;14.30;99.90;;;;;;5088958;28;20442;-51
2022/10/17 00:17:59;;;;;;;12.17;10.43;;;14.30;99.90;;;;;;5089033;28;20462;-50
2022/10/17 00:20:25;;;;;;;11.93;10.57;;;14.40;99.90;;;;;;5083563;28;20189;-51
2022/10/17 00:22:51;;;;;;;12.57;11.30;;;14.50;99.90;;;;;;5088731;28;20429;-49
2022/10/17 00:25:17;;;;;;;12.57;11.37;;;14.60;99.90;;;;;;5087622;28;20196;-50
2022/10/17 00:27:44;;;;;;;14.40;12.90;;;14.70;99.90;;;;;;5082661;28;20506;-47
2022/10/17 00:30:13;;;;;;;13.73;12.23;;;14.70;99.90;;;;;;5087039;28;20450;-50
2022/10/17 00:32:39;;;;;;;14.47;12.40;;;14.70;99.90;;;;;;5088016;28;20415;-49
2022/10/17 00:35:06;;;;;;;14.47;12.97;;;14.70;99.90;;;;;;5066843;28;20537;-53
2022/10/17 00:37:32;;;;;;;17.50;12.20;;;14.70;99.90;;;;;;5086561;28;20434;-48
2022/10/17 00:39:58;;;;;;;18.03;13.67;;;14.70;99.90;;;;;;5088832;28;20923;-47
2022/10/17 00:42:24;;;;;;;14.77;13.27;;;14.70;99.90;;;;;;5088324;28;20407;-51
2022/10/17 00:44:49;;;;;;;15.43;13.80;;;14.80;99.90;;;;;;5087509;28;20251;-51
2022/10/17 00:47:19;;;;;;;16.83;14.30;;;14.70;99.90;;;;;;5068374;28;20957;-51
2022/10/17 00:49:46;;;;;;;20.10;17.10;;;14.70;99.90;;;;;;5063623;28;20280;-50
2022/10/17 00:52:20;;;;;;;19.77;16.90;;;14.80;99.90;;;;;;5088498;28;20415;-49
2022/10/17 00:54:50;;;;;;;22.87;18.30;;;14.80;99.90;;;;;;5086407;28;20466;-48
2022/10/17 00:57:17;;;;;;;17.80;15.90;;;14.80;99.90;;;;;;5082729;28;20462;-47
2022/10/17 00:59:47;;;;;;;20.87;17.23;;;14.80;99.90;;;;;;5086674;28;20865;-50
2022/10/17 01:02:16;;;;;;;21.20;18.10;;;14.80;99.90;;;;;;5088498;28;20426;-49
2022/10/17 01:04:45;;;;;;;20.33;18.13;;;14.80;99.90;;;;;;5087462;28;20892;-46
2022/10/17 01:07:11;;;;;;;22.50;18.10;;;14.80;99.90;;;;;;5085704;28;20475;-45
2022/10/17 01:09:38;;;;;;;21.00;17.90;;;14.70;99.90;;;;;;5086236;28;20988;-49
2022/10/17 01:12:14;;;;;;;21.00;17.73;;;14.80;99.90;;;;;;5087654;28;20186;-48
2022/10/17 01:14:48;;;;;;;18.60;15.77;;;14.70;99.90;;;;;;5087233;28;20447;-49
2022/10/17 01:17:34;;;;;;;15.23;13.73;;;14.70;99.90;;;;;;5088317;28;20439;-49
2022/10/17 01:20:33;;;;;;;13.20;10.80;;;14.60;99.90;;;;;;5084757;28;20431;-51
2022/10/17 01:23:26;;;;;;;15.67;13.40;;;14.40;99.90;;;;;;5068304;28;20477;-48
2022/10/17 01:26:13;;;;;;;18.60;15.07;;;14.20;99.90;;;;;;5087642;28;20420;-51
2022/10/17 01:29:03;;;;;;;19.07;16.60;;;14.10;99.90;;;;;;5085484;28;20442;-45
2022/10/17 01:31:44;;;;;;;18.03;16.20;;;14.00;99.90;;;;;;5075514;28;20423;-47
2022/10/17 01:34:29;;;;;;;21.80;18.83;;;14.00;99.90;;;;;;5083081;28;20802;-48
2022/10/17 01:37:20;;;;;;;25.80;22.37;;;14.00;99.90;;;;;;5087288;28;20525;-49
2022/10/17 01:39:57;;;;;;;32.60;24.00;;;14.00;99.90;;;;;;5088377;28;20483;-48
2022/10/17 01:42:46;;;;;;;30.47;24.30;;;14.00;99.90;;;;;;5086185;28;21015;-47
2022/10/17 01:45:18;;;;;;;32.27;24.70;;;14.10;99.90;;;;;;5085239;28;20472;-47
2022/10/17 01:47:48;;;;;;;32.57;25.40;;;14.20;99.90;;;;;;5087149;28;20522;-49
2022/10/17 01:50:31;;;;;;;34.83;27.23;;;14.30;99.90;;;;;;5089503;28;20438;-48
2022/10/17 01:53:05;;;;;;;39.70;26.83;;;14.30;99.90;;;;;;5089114;28;20907;-49
2022/10/17 01:55:38;;;;;;;33.30;27.00;;;14.40;99.90;;;;;;5091368;28;20916;-50
2022/10/17 01:58:12;;;;;;;36.27;27.80;;;14.40;99.90;;;;;;5090275;28;20523;-51
2022/10/17 02:00:41;;;;;;;35.20;28.93;;;14.40;99.90;;;;;;5090745;28;20963;-49
2022/10/17 02:03:11;;;;;;;36.20;27.80;;;14.40;99.90;;;;;;5090762;28;20469;-50
2022/10/17 02:05:41;;;;;;;37.50;28.23;;;14.50;99.90;;;;;;5089988;28;21054;-48
2022/10/17 02:08:07;;;;;;;38.50;29.90;;;14.60;99.90;;;;;;5090907;28;20570;-48
2022/10/17 02:10:46;;;;;;;37.03;30.40;;;14.60;99.90;;;;;;5077042;28;20403;-49
2022/10/17 02:13:11;;;;;;;44.90;32.53;;;14.70;99.90;;;;;;5091836;28;20432;-50
2022/10/17 02:15:37;;;;;;;46.70;32.57;;;14.70;99.90;;;;;;5090491;28;20403;-50
2022/10/17 02:18:40;;;;;;;44.53;33.27;;;14.70;99.90;;;;;;5091351;28;20196;-47
2022/10/17 02:21:37;;;;;;;41.97;32.50;;;14.80;99.90;;;;;;5089472;28;20200;-49
2022/10/17 02:24:09;;;;;;;43.53;34.80;;;14.80;99.90;;;;;;5088637;28;20473;-50
2022/10/17 02:26:44;;;;;;;40.97;33.30;;;14.80;99.90;;;;;;5089210;28;21012;-52
2022/10/17 02:29:22;;;;;;;41.07;32.30;;;14.80;99.90;;;;;;5089757;28;20445;-45
2022/10/17 02:31:54;;;;;;;43.77;33.63;;;14.90;99.90;;;;;;5088846;28;20462;-46
2022/10/17 02:34:40;;;;;;;41.57;32.37;;;14.90;99.90;;;;;;5090567;28;20426;-49
2022/10/17 02:37:08;;;;;;;43.20;32.03;;;14.90;99.90;;;;;;5090160;28;20508;-51
2022/10/17 02:39:35;;;;;;;40.23;32.27;;;14.90;99.90;;;;;;5090663;28;20459;-48
2022/10/17 02:42:06;;;;;;;40.50;31.20;;;15.00;99.90;;;;;;5090177;28;20439;-47
2022/10/17 02:44:33;;;;;;;40.33;31.80;;;15.00;99.90;;;;;;5089732;28;20827;-49
2022/10/17 02:47:06;;;;;;;40.27;31.57;;;15.00;99.90;;;;;;5088333;28;20619;-49
2022/10/17 02:49:38;;;;;;;40.67;32.57;;;15.00;99.90;;;;;;5089291;28;20444;-50
2022/10/17 02:52:15;;;;;;;40.30;30.57;;;15.00;99.90;;;;;;5090782;28;20480;-49
2022/10/17 02:54:53;;;;;;;36.30;30.20;;;15.00;99.90;;;;;;5089608;28;20442;-51
2022/10/17 02:57:24;;;;;;;40.43;31.03;;;15.10;99.90;;;;;;5088828;28;20443;-48
2022/10/17 02:59:50;;;;;;;38.23;31.27;;;15.10;99.90;;;;;;5089506;28;20447;-50
2022/10/17 03:02:16;;;;;;;36.50;30.13;;;15.10;99.90;;;;;;5089879;28;20427;-48
2022/10/17 03:04:45;;;;;;;46.90;31.70;;;15.10;99.90;;;;;;5088847;28;20470;-49
2022/10/17 03:07:11;;;;;;;35.47;29.60;;;15.20;99.90;;;;;;5090152;28;20465;-48
2022/10/17 03:09:37;;;;;;;37.17;29.73;;;15.30;99.90;;;;;;5088992;28;20442;-50
2022/10/17 03:12:03;;;;;;;33.13;28.40;;;15.30;99.90;;;;;;5090287;28;20429;-51
2022/10/17 03:14:29;;;;;;;32.73;29.23;;;15.30;99.90;;;;;;5089255;28;20300;-49
2022/10/17 03:16:54;;;;;;;35.33;27.10;;;15.30;99.90;;;;;;5090339;28;20509;-46
2022/10/17 03:19:20;;;;;;;32.03;26.53;;;15.40;99.90;;;;;;5089428;28;20632;-47
2022/10/17 03:21:45;;;;;;;31.00;26.70;;;15.40;99.90;;;;;;5070290;28;20206;-50
2022/10/17 03:24:11;;;;;;;29.17;26.07;;;15.40;99.90;;;;;;5089110;28;20217;-48
2022/10/17 03:26:36;;;;;;;34.23;27.93;;;15.40;99.90;;;;;;5088184;28;20198;-47
2022/10/17 03:29:02;;;;;;;30.70;26.40;;;15.40;99.90;;;;;;5089952;28;20670;-46
2022/10/17 03:31:28;;;;;;;29.73;25.63;;;15.40;99.90;;;;;;5087964;28;20192;-50
2022/10/17 03:33:53;;;;;;;31.77;26.20;;;15.40;99.90;;;;;;5089776;28;20199;-48
2022/10/17 03:36:19;;;;;;;30.13;25.27;;;15.40;99.90;;;;;;5088772;28;20205;-50
2022/10/17 03:38:45;;;;;;;32.57;27.20;;;15.40;99.90;;;;;;5089918;28;20224;-49
2022/10/17 03:41:11;;;;;;;29.17;26.07;;;15.40;99.90;;;;;;5087815;28;20450;-47
2022/10/17 03:43:38;;;;;;;28.93;25.50;;;15.40;99.90;;;;;;5089179;28;20949;-49
2022/10/17 03:46:04;;;;;;;30.00;25.17;;;15.50;99.90;;;;;;5087320;28;20222;-53
2022/10/17 03:48:31;;;;;;;28.57;25.00;;;15.40;99.90;;;;;;5089491;28;20433;-53
2022/10/17 03:51:05;;;;;;;30.27;24.77;;;15.40;99.90;;;;;;5070675;28;20453;-49
2022/10/17 03:53:31;;;;;;;29.63;26.43;;;15.50;99.90;;;;;;5088844;28;20929;-49
2022/10/17 03:56:08;;;;;;;28.97;25.30;;;15.50;99.90;;;;;;5085632;28;21138;-50
2022/10/17 03:58:34;;;;;;;29.97;26.47;;;15.50;99.90;;;;;;5088367;28;20467;-46
2022/10/17 04:01:07;;;;;;;29.90;25.60;;;15.40;99.90;;;;;;5086356;28;20483;-47
2022/10/17 04:03:33;;;;;;;28.20;25.30;;;15.40;99.90;;;;;;5088460;28;20559;-54
2022/10/17 04:06:02;;;;;;;29.87;26.07;;;15.50;99.90;;;;;;5088685;28;20483;-50
2022/10/17 04:08:29;;;;;;;28.43;25.30;;;15.50;99.90;;;;;;5089184;28;20182;-48
2022/10/17 04:10:59;;;;;;;28.17;24.13;;;15.50;99.90;;;;;;5088111;28;20446;-49
2022/10/17 04:13:25;;;;;;;29.03;25.80;;;15.50;99.90;;;;;;5088441;28;20430;-48
2022/10/17 04:15:59;;;;;;;27.57;24.47;;;15.50;99.90;;;;;;5068491;28;20444;-50
2022/10/17 04:18:25;;;;;;;29.40;25.43;;;15.40;99.90;;;;;;5081528;28;20205;-50
2022/10/17 04:20:51;;;;;;;28.30;24.43;;;15.40;99.90;;;;;;5082907;28;20922;-52
2022/10/17 04:23:17;;;;;;;27.87;24.87;;;15.40;99.90;;;;;;5077662;28;20235;-48
2022/10/17 04:25:42;;;;;;;29.23;25.37;;;15.40;99.90;;;;;;5076874;28;20214;-48
2022/10/17 04:28:08;;;;;;;29.73;25.83;;;15.40;99.90;;;;;;5078483;28;20619;-47
2022/10/17 04:30:34;;;;;;;30.13;25.70;;;15.30;99.90;;;;;;5078410;28;20604;-46
2022/10/17 04:32:59;;;;;;;31.40;25.47;;;15.30;99.90;;;;;;5079780;28;20468;-51
2022/10/17 04:35:25;;;;;;;30.97;25.20;;;15.30;99.90;;;;;;5060267;28;20195;-47
2022/10/17 04:37:50;;;;;;;30.77;26.40;;;15.40;99.90;;;;;;5079919;28;20209;-48
2022/10/17 04:40:16;;;;;;;32.47;26.30;;;15.30;99.90;;;;;;5078031;28;20437;-51
2022/10/17 04:42:42;;;;;;;34.03;29.27;;;15.30;99.90;;;;;;5085350;28;20198;-48
2022/10/17 04:45:08;;;;;;;31.87;28.30;;;15.40;99.90;;;;;;5086244;28;20206;-51
2022/10/17 04:47:33;;;;;;;33.63;28.53;;;15.30;99.90;;;;;;5088811;28;20307;-47
2022/10/17 04:49:59;;;;;;;32.87;29.37;;;15.30;99.90;;;;;;5088961;28;21094;-48
2022/10/17 04:52:25;;;;;;;33.17;29.37;;;15.30;99.90;;;;;;5088550;28;20272;-51
2022/10/17 04:54:51;;;;;;;36.10;30.40;;;15.30;99.90;;;;;;5088650;28;20232;-46
2022/10/17 04:57:18;;;;;;;34.43;30.50;;;15.30;99.90;;;;;;5064412;28;20198;-51
2022/10/17 04:59:44;;;;;;;33.87;30.17;;;15.30;99.90;;;;;;5086537;28;20470;-47
2022/10/17 05:02:09;;;;;;;36.90;31.77;;;15.30;99.90;;;;;;5087518;28;20510;-49
2022/10/17 05:04:35;;;;;;;35.23;31.10;;;15.30;99.90;;;;;;5087819;28;20278;-50
2022/10/17 05:07:01;;;;;;;34.30;30.20;;;15.20;99.90;;;;;;5088267;28;20230;-49
2022/10/17 05:09:27;;;;;;;34.23;30.50;;;15.30;99.90;;;;;;5088310;28;20218;-50
2022/10/17 05:11:52;;;;;;;38.70;32.40;;;15.20;99.90;;;;;;5088389;28;20190;-51
2022/10/17 05:14:18;;;;;;;40.80;33.47;;;15.20;99.90;;;;;;5088191;28;20427;-50
2022/10/17 05:16:44;;;;;;;36.80;32.20;;;15.30;99.90;;;;;;5088137;28;20645;-52
2022/10/17 05:19:10;;;;;;;38.67;34.17;;;15.30;99.90;;;;;;5088212;28;20212;-49
2022/10/17 05:21:36;;;;;;;40.70;32.63;;;15.20;99.90;;;;;;5088249;28;20268;-49
2022/10/17 05:24:05;;;;;;;37.67;31.90;;;15.20;99.90;;;;;;5089175;28;20524;-47
2022/10/17 05:26:30;;;;;;;36.70;32.57;;;15.20;99.90;;;;;;5090501;28;20451;-48
2022/10/17 05:28:57;;;;;;;37.77;32.63;;;15.20;99.90;;;;;;5091316;28;20443;-49
2022/10/17 05:31:23;;;;;;;40.13;32.07;;;15.20;99.90;;;;;;5092009;28;20219;-49
2022/10/17 05:33:48;;;;;;;35.47;31.57;;;15.20;99.90;;;;;;5091990;28;20448;-49
2022/10/17 05:36:14;;;;;;;38.57;32.80;;;15.20;99.90;;;;;;5091908;28;20200;-52
2022/10/17 05:38:39;;;;;;;37.50;32.50;;;15.20;99.90;;;;;;5092334;28;20238;-51
2022/10/17 05:41:05;;;;;;;37.47;32.40;;;15.20;99.90;;;;;;5092015;28;20603;-52
2022/10/17 05:43:32;;;;;;;38.60;32.00;;;15.20;99.90;;;;;;5091983;28;20206;-49
2022/10/17 05:45:58;;;;;;;39.90;32.70;;;15.20;99.90;;;;;;5091800;28;20473;-49
2022/10/17 05:48:24;;;;;;;39.80;33.50;;;15.20;99.90;;;;;;5091770;28;20412;-47
2022/10/17 05:50:57;;;;;;;40.23;32.00;;;15.20;99.90;;;;;;5091457;28;20206;-52
2022/10/17 05:53:23;;;;;;;41.87;33.80;;;15.20;99.90;;;;;;5091768;28;20422;-49
2022/10/17 05:55:55;;;;;;;41.80;36.10;;;15.20;99.90;;;;;;5091199;28;20435;-50
2022/10/17 05:58:21;;;;;;;41.27;35.33;;;15.20;99.90;;;;;;5084356;28;20208;-46
2022/10/17 06:00:46;;;;;;;39.13;34.63;;;15.20;99.90;;;;;;5091459;28;20877;-49
2022/10/17 06:03:12;;;;;;;43.93;35.27;;;15.20;99.90;;;;;;5091385;28;20688;-49
2022/10/17 06:05:37;;;;;;;38.67;33.80;;;15.30;99.90;;;;;;5091235;28;20237;-49
2022/10/17 06:08:03;;;;;;;42.23;35.43;;;15.30;99.90;;;;;;5091792;28;20193;-48
2022/10/17 06:10:28;;;;;;;40.97;35.60;;;15.30;99.90;;;;;;5091461;28;20194;-50
2022/10/17 06:12:55;;;;;;;41.87;35.70;;;15.30;99.90;;;;;;5091456;28;20216;-49
2022/10/17 06:15:21;;;;;;;40.60;34.30;;;15.30;99.90;;;;;;5091329;28;20187;-48
2022/10/17 06:17:46;;;;;;;39.30;33.80;;;15.30;99.90;;;;;;5091383;28;20414;-53
2022/10/17 06:20:12;;;;;;;41.33;34.90;;;15.40;99.90;;;;;;5091017;28;20198;-48
2022/10/17 06:22:37;;;;;;;41.47;35.10;;;15.40;99.90;;;;;;5091332;28;20179;-52
2022/10/17 06:25:03;;;;;;;41.13;36.03;;;15.30;99.90;;;;;;5091079;28;20212;-49
2022/10/17 06:27:29;;;;;;;40.73;36.33;;;15.40;99.90;;;;;;5089830;28;20578;-49
2022/10/17 06:29:54;;;;;;;41.83;35.70;;;15.40;99.90;;;;;;5090416;28;20312;-50
2022/10/17 06:32:20;;;;;;;41.60;35.30;;;15.40;99.90;;;;;;5090865;28;20670;-52
2022/10/17 06:34:45;;;;;;;40.83;35.83;;;15.40;99.90;;;;;;5090473;28;20193;-49
2022/10/17 06:37:11;;;;;;;41.60;36.03;;;15.30;99.90;;;;;;5090199;28;20673;-49
2022/10/17 06:39:36;;;;;;;43.87;36.33;;;15.40;99.90;;;;;;5090965;28;20234;-52
2022/10/17 06:42:03;;;;;;;44.27;36.20;;;15.40;99.90;;;;;;5090889;28;20196;-51
2022/10/17 06:44:30;;;;;;;41.43;37.03;;;15.40;99.90;;;;;;5091035;28;20209;-53
2022/10/17 06:46:57;;;;;;;41.17;36.00;;;15.40;99.90;;;;;;5090786;28;20424;-49
2022/10/17 06:49:22;;;;;;;40.90;35.17;;;15.40;99.90;;;;;;5090752;28;20878;-50
2022/10/17 06:51:48;;;;;;;41.40;35.00;;;15.50;99.90;;;;;;5089694;28;21077;-54
2022/10/17 06:54:13;;;;;;;40.00;35.03;;;15.50;99.90;;;;;;5090023;28;20271;-51
2022/10/17 06:56:39;;;;;;;43.10;35.83;;;15.50;99.90;;;;;;5090394;28;20202;-53
2022/10/17 06:59:04;;;;;;;47.00;34.53;;;15.50;99.90;;;;;;5090666;28;20208;-50
2022/10/17 07:01:31;;;;;;;40.10;35.13;;;15.60;99.90;;;;;;5090444;28;20330;-48
2022/10/17 07:03:56;;;;;;;40.83;36.47;;;15.60;99.90;;;;;;5090102;28;20294;-48
2022/10/17 07:06:25;;;;;;;40.30;35.83;;;15.60;99.90;;;;;;5090078;28;20552;-49
2022/10/17 07:08:51;;;;;;;41.17;35.80;;;15.70;99.90;;;;;;5090350;28;20182;-51
2022/10/17 07:11:19;;;;;;;41.10;35.33;;;15.70;99.90;;;;;;5090098;28;20427;-48
2022/10/17 07:13:46;;;;;;;38.60;34.40;;;15.70;99.90;;;;;;5090348;28;20417;-48
2022/10/17 07:16:12;;;;;;;41.73;34.67;;;15.80;99.90;;;;;;5089961;28;20420;-51
2022/10/17 07:18:38;;;;;;;39.70;35.40;;;15.90;99.90;;;;;;5090024;28;20424;-48
2022/10/17 07:21:04;;;;;;;40.80;35.87;;;16.00;99.90;;;;;;5088197;28;20683;-54
2022/10/17 07:23:30;;;;;;;41.07;34.23;;;16.00;99.90;;;;;;5084486;28;20966;-44
2022/10/17 07:26:15;;;;;;;38.30;34.03;;;16.10;99.90;;;;;;5088073;28;20566;-49
2022/10/17 07:28:43;;;;;;;43.37;34.97;;;16.10;99.90;;;;;;5088101;28;20250;-51
2022/10/17 07:31:15;;;;;;;39.43;34.73;;;16.20;99.90;;;;;;5076450;28;20498;-48
2022/10/17 07:33:41;;;;;;;41.57;35.23;;;16.30;99.90;;;;;;5089752;28;20467;-53
2022/10/17 07:36:07;;;;;;;37.43;33.33;;;16.40;99.90;;;;;;5089480;28;20947;-52
2022/10/17 07:38:33;;;;;;;36.60;32.80;;;16.40;99.90;;;;;;5089586;28;20516;-50
2022/10/17 07:41:01;;;;;;;38.07;33.90;;;16.50;99.90;;;;;;5089988;28;20191;-48
2022/10/17 07:43:27;;;;;;;37.10;33.10;;;16.60;99.90;;;;;;5089058;28;20568;-52
2022/10/17 07:45:53;;;;;;;40.53;34.00;;;16.90;99.90;;;;;;5089530;28;20508;-51
2022/10/17 07:48:20;;;;;;;36.80;33.00;;;17.00;99.90;;;;;;5089228;28;20931;-50
2022/10/17 07:50:46;;;;;;;36.10;31.83;;;17.30;99.90;;;;;;5088147;28;20880;-51
2022/10/17 07:53:11;;;;;;;35.37;31.60;;;17.60;99.90;;;;;;5088516;28;20434;-52
2022/10/17 07:55:38;;;;;;;35.37;31.50;;;17.90;99.90;;;;;;5089196;28;20191;-47
2022/10/17 07:58:04;;;;;;;32.63;29.23;;;18.30;99.90;;;;;;5070912;28;20197;-52
2022/10/17 08:00:29;;;;;;;33.70;30.10;;;18.80;99.90;;;;;;5089258;28;20433;-49
2022/10/17 08:02:55;;;;;;;31.63;28.20;;;19.20;99.90;;;;;;5089149;28;20200;-52
2022/10/17 08:05:20;;;;;;;31.07;27.97;;;19.60;99.90;;;;;;5089094;28;20196;-50
2022/10/17 08:07:46;;;;;;;31.70;28.70;;;20.00;99.90;;;;;;5089186;28;20184;-49
2022/10/17 08:10:13;;;;;;;30.87;27.97;;;20.20;99.90;;;;;;5089977;28;20949;-47
2022/10/17 08:12:38;;;;;;;30.90;27.80;;;20.70;99.90;;;;;;5088957;28;20264;-46
2022/10/17 08:15:05;;;;;;;30.53;27.63;;;21.00;99.90;;;;;;5089229;28;20510;-48
2022/10/17 08:17:30;;;;;;;28.97;26.13;;;21.40;99.90;;;;;;5088974;28;20196;-51
2022/10/17 08:19:56;;;;;;;30.20;27.30;;;21.70;99.90;;;;;;5088808;28;20434;-50
2022/10/17 08:22:22;;;;;;;29.63;26.87;;;22.00;99.90;;;;;;5087775;28;20670;-50
2022/10/17 08:24:47;;;;;;;29.50;26.80;;;22.30;99.90;;;;;;5088446;28;20334;-49
2022/10/17 08:27:13;;;;;;;30.20;27.47;;;22.30;99.90;;;;;;5088300;28;20583;-51
2022/10/17 08:29:39;;;;;;;30.37;27.60;;;22.60;99.90;;;;;;5088574;28;20759;-55
2022/10/17 08:32:06;;;;;;;29.03;26.33;;;22.70;99.90;;;;;;5088549;28;20189;-46
2022/10/17 08:34:31;;;;;;;30.37;27.67;;;22.60;99.90;;;;;;5088452;28;20454;-49
2022/10/17 08:36:57;;;;;;;30.13;27.33;;;22.80;99.90;;;;;;5088453;28;20519;-48
2022/10/17 08:39:23;;;;;;;29.40;26.60;;;22.80;99.90;;;;;;5088458;28;20195;-51
2022/10/17 08:42:02;;;;;;;27.63;25.23;;;22.90;99.90;;;;;;5088273;28;20202;-48
2022/10/17 08:44:44;;;;;;;31.37;28.47;;;23.50;99.30;;;;;;5088126;28;20215;-49
2022/10/17 08:47:14;;;;;;;30.03;27.30;;;23.50;98.50;;;;;;5088369;28;20418;-47
2022/10/17 08:49:51;;;;;;;29.50;26.60;;;23.50;98.00;;;;;;5088354;28;20414;-48
2022/10/17 08:52:39;;;;;;;30.33;27.07;;;23.70;97.30;;;;;;5087301;28;20434;-53
2022/10/17 08:55:14;;;;;;;29.80;27.00;;;23.40;97.00;;;;;;5088736;28;20457;-50
2022/10/17 08:57:40;;;;;;;30.30;27.50;;;23.20;97.30;;;;;;5088462;28;20414;-51
2022/10/17 09:00:19;;;;;;;29.60;26.73;;;23.00;98.20;;;;;;5094550;28;20495;-48
2022/10/17 09:03:08;;;;;;;29.50;26.63;;;23.30;98.10;;;;;;5095088;28;20215;-53
2022/10/17 09:05:38;;;;;;;29.70;27.00;;;23.90;97.10;;;;;;5094849;28;20465;-48
2022/10/17 09:08:23;;;;;;;29.97;27.30;;;24.00;95.60;;;;;;5095072;28;20975;-53
2022/10/17 09:11:25;;;;;;;29.20;26.40;;;24.20;95.30;;;;;;5095049;28;20418;-48
2022/10/17 09:13:50;;;;;;;29.23;26.43;;;24.50;94.20;;;;;;5005556;28;20432;-53
2022/10/17 09:16:29;;;;;;;28.97;26.27;;;24.40;93.30;;;;;;5095072;28;20418;-52
2022/10/17 09:19:14;;;;;;;31.80;28.67;;;24.40;94.00;;;;;;5094886;28;20187;-50
2022/10/17 09:21:45;;;;;;;30.77;27.87;;;24.30;93.30;;;;;;5092972;28;20437;-51
2022/10/17 09:24:18;;;;;;;29.93;27.03;;;24.50;93.30;;;;;;5088325;28;20511;-51
2022/10/17 09:26:45;;;;;;;29.33;26.57;;;25.00;92.20;;;;;;5094737;28;20422;-48
2022/10/17 09:29:20;;;;;;;29.13;26.63;;;25.30;91.40;;;;;;5095036;28;20410;-48
2022/10/17 09:32:14;;;;;;;30.23;27.77;;;25.50;90.40;;;;;;5095150;28;20417;-48
2022/10/17 09:34:40;;;;;;;29.37;26.87;;;25.80;87.60;;;;;;5094682;28;20418;-52
2022/10/17 09:37:11;;;;;;;28.60;26.10;;;25.80;86.00;;;;;;5094753;28;20419;-50
2022/10/17 09:39:37;;;;;;;29.30;26.87;;;25.90;85.20;;;;;;5094477;28;20264;-48
2022/10/17 09:42:03;;;;;;;29.80;27.30;;;26.10;82.60;;;;;;5094814;28;20889;-47
2022/10/17 09:45:12;;;;;;;28.07;25.77;;;26.40;81.30;;;;;;5094653;28;20609;-51
2022/10/17 09:47:44;;;;;;;28.20;25.90;;;26.00;80.10;;;;;;5076549;28;20422;-51
2022/10/17 09:50:25;;;;;;;29.00;26.50;;;25.80;80.30;;;;;;5077004;28;20465;-53
2022/10/17 09:52:52;;;;;;;26.97;24.67;;;25.70;82.40;;;;;;5093453;28;20445;-51
2022/10/17 09:55:24;;;;;;;28.20;25.80;;;25.60;83.10;;;;;;5094503;28;20505;-55
2022/10/17 09:58:01;;;;;;;28.10;25.70;;;25.90;82.20;;;;;;5095153;28;20456;-54
2022/10/17 10:00:31;;;;;;;27.30;25.00;;;26.40;79.10;;;;;;5095008;28;20501;-51
2022/10/17 10:03:21;;;;;;;26.80;24.53;;;27.00;77.30;;;;;;5094739;28;20472;-51
2022/10/17 10:06:06;;;;;;;26.00;24.00;;;27.40;73.50;;;;;;5076160;28;20481;-53
2022/10/17 10:08:54;;;;;;;27.63;25.33;;;27.50;70.70;;;;;;5094668;28;20426;-52
2022/10/17 10:11:42;;;;;;;27.70;25.40;;;27.80;70.30;;;;;;5079532;28;20469;-51
2022/10/17 10:14:27;;;;;;;28.83;26.33;;;28.00;68.40;;;;;;5091439;28;20422;-53
2022/10/17 10:16:54;;;;;;;26.13;23.97;;;28.10;66.30;;;;;;5091732;28;20976;-53
2022/10/17 10:19:48;;;;;;;28.67;26.43;;;28.20;64.40;;;;;;5091110;28;20504;-50
2022/10/17 10:22:15;;;;;;;27.80;25.20;;;28.20;63.30;;;;;;5077781;28;20477;-47
2022/10/17 10:24:41;;;;;;;25.73;23.53;;;28.60;63.90;;;;;;5071173;28;20569;-52
2022/10/17 10:27:13;;;;;;;28.87;26.57;;;28.80;59.90;;;;;;5061088;28;20588;-53
2022/10/17 10:29:51;;;;;;;26.90;24.67;;;29.10;60.00;;;;;;5090291;28;20631;-53
2022/10/17 10:32:29;;;;;;;26.73;24.63;;;29.10;58.50;;;;;;5090861;28;20781;-54
2022/10/17 10:35:02;;;;;;;25.07;22.97;;;29.40;58.30;;;;;;5091020;28;20745;-55
2022/10/17 10:37:34;;;;;;;25.07;22.90;;;29.80;56.70;;;;;;5090863;28;20445;-52
2022/10/17 10:40:23;;;;;;;24.73;22.83;;;30.10;55.30;;;;;;5071897;28;20478;-50
2022/10/17 10:42:51;;;;;;;24.60;22.80;;;30.80;53.30;;;;;;5077713;28;20427;-49
2022/10/17 10:45:26;;;;;;;24.90;23.00;;;30.70;52.80;;;;;;5090570;28;20473;-52
2022/10/17 10:48:19;;;;;;;24.17;22.17;;;31.10;50.50;;;;;;5091058;28;20786;-54
2022/10/17 10:50:58;;;;;;;26.53;24.53;;;31.30;50.20;;;;;;5069603;28;20448;-51
2022/10/17 10:53:33;;;;;;;25.00;23.10;;;31.40;49.40;;;;;;5090290;28;20962;-48
2022/10/17 10:56:40;;;;;;;24.67;22.73;;;31.40;49.50;;;;;;5089832;28;20501;-50
2022/10/17 10:59:28;;;;;;;24.30;22.17;;;31.60;49.10;;;;;;5007896;28;20439;-49
2022/10/17 11:02:06;;;;;;;24.50;22.70;;;31.40;46.60;;;;;;5084652;28;20430;-50
2022/10/17 11:04:38;;;;;;;25.33;23.40;;;31.30;47.20;;;;;;5090310;28;20477;-51
2022/10/17 11:07:27;;;;;;;24.70;22.90;;;31.70;45.80;;;;;;5090080;28;20995;-53
2022/10/17 11:10:07;;;;;;;24.70;22.80;;;31.50;47.30;;;;;;5088936;28;20976;-51
2022/10/17 11:12:45;;;;;;;25.20;23.20;;;31.60;45.60;;;;;;5090724;28;20537;-45
2022/10/17 11:15:36;;;;;;;25.27;22.97;;;31.50;45.90;;;;;;5089949;28;20426;-52
2022/10/17 11:18:09;;;;;;;27.20;25.20;;;30.80;46.50;;;;;;5090253;28;20936;-49
2022/10/17 11:20:57;;;;;;;24.27;22.47;;;30.80;45.80;;;;;;5089796;28;20441;-48
2022/10/17 11:23:34;;;;;;;25.20;23.20;;;31.20;48.00;;;;;;5084125;28;20493;-51
2022/10/17 11:26:04;;;;;;;25.70;23.70;;;31.60;46.20;;;;;;5089623;28;20911;-50
2022/10/17 11:28:30;;;;;;;24.97;22.97;;;31.90;44.90;;;;;;5089743;28;20850;-50
2022/10/17 11:31:01;;;;;;;23.50;21.70;;;31.90;45.40;;;;;;5089998;28;20403;-48
2022/10/17 11:33:38;;;;;;;23.30;21.50;;;31.90;45.00;;;;;;5089859;28;20260;-53
2022/10/17 11:36:06;;;;;;;24.40;22.07;;;32.10;45.10;;;;;;5089666;28;20924;-53
2022/10/17 11:38:42;;;;;;;26.63;24.53;;;32.50;43.50;;;;;;5088972;28;20419;-49
2022/10/17 11:41:12;;;;;;;25.00;23.20;;;32.30;41.90;;;;;;5089512;28;21391;-51
2022/10/17 11:43:53;;;;;;;25.33;23.43;;;32.20;43.10;;;;;;5089715;28;20450;-54
2022/10/17 11:46:22;;;;;;;25.10;23.10;;;32.40;43.90;;;;;;5089528;28;20421;-53
2022/10/17 11:49:06;;;;;;;25.33;23.53;;;32.70;43.00;;;;;;5088525;28;20808;-49
2022/10/17 11:51:42;;;;;;;25.37;23.30;;;32.70;42.00;;;;;;5089471;28;20418;-47
2022/10/17 11:54:15;;;;;;;24.60;22.90;;;32.30;42.10;;;;;;5089597;28;20422;-53
2022/10/17 11:57:01;;;;;;;24.17;22.40;;;32.60;42.60;;;;;;5089359;28;20410;-52
2022/10/17 11:59:55;;;;;;;24.23;22.37;;;32.10;41.40;;;;;;5089769;28;20542;-49
2022/10/17 12:02:30;;;;;;;24.03;22.30;;;32.00;42.10;;;;;;5089434;28;20421;-52
2022/10/17 12:05:03;;;;;;;22.47;20.97;;;31.90;42.30;;;;;;5089193;28;20454;-52
2022/10/17 12:07:47;;;;;;;23.17;21.57;;;31.80;42.20;;;;;;5089042;28;20467;-51
2022/10/17 12:10:23;;;;;;;24.40;22.40;;;31.80;43.10;;;;;;5088549;28;20884;-52
2022/10/17 12:12:49;;;;;;;24.03;22.23;;;32.20;42.70;;;;;;5076858;28;20409;-52
2022/10/17 12:15:24;;;;;;;25.33;23.13;;;32.60;42.40;;;;;;5088920;28;20506;-54
2022/10/17 12:18:01;;;;;;;22.83;21.33;;;33.00;41.90;;;;;;5089139;28;20196;-49
2022/10/17 12:20:29;;;;;;;22.90;21.30;;;33.00;41.70;;;;;;5089089;28;20775;-45
2022/10/17 12:22:59;;;;;;;23.30;21.70;;;33.20;39.10;;;;;;5089253;28;20461;-52
2022/10/17 12:25:29;;;;;;;22.17;20.53;;;33.10;39.80;;;;;;5088851;28;20493;-51
2022/10/17 12:28:17;;;;;;;23.97;22.13;;;33.50;39.10;;;;;;5070490;28;20426;-51
2022/10/17 12:30:58;;;;;;;24.60;22.70;;;31.40;38.80;;;;;;5088761;28;20761;-51
2022/10/17 12:33:32;;;;;;;22.63;20.90;;;31.70;42.30;;;;;;5088752;28;20425;-52
2022/10/17 12:36:16;;;;;;;22.50;21.00;;;32.10;40.90;;;;;;5089120;28;20433;-53
2022/10/17 12:38:42;;;;;;;23.50;21.80;;;32.10;40.40;;;;;;5089337;28;20435;-48
2022/10/17 12:41:08;;;;;;;25.00;23.20;;;32.30;40.00;;;;;;5087688;28;20497;-49
2022/10/17 12:43:49;;;;;;;23.03;21.33;;;32.10;40.60;;;;;;5088786;28;20450;-53
2022/10/17 12:46:51;;;;;;;22.97;21.37;;;32.10;40.80;;;;;;5088538;28;20411;-50
2022/10/17 12:49:39;;;;;;;21.70;20.10;;;32.00;39.50;;;;;;5088536;28;20450;-54